Time;durP1;ratioP1;P1;durP2;ratioP2;P2;SDS_P1;SDS_P2;PMS_P1;PMS_P2;Temp;Humidity;BMP_temperature;BMP_pressure;BME280_temperature;BME280_humidity;BME280_pressure;Samples;Min_cycle;Max_cycle;Signal;HPM_P1;HPM_P2
2023/07/24 00:00:20;;;;;;;16.37;8.80;;;18.30;22.90;;;;;;5058584;28;46517;-80
2023/07/24 00:02:46;;;;;;;18.73;8.80;;;18.20;23.10;;;;;;5058847;28;46671;-80
2023/07/24 00:05:12;;;;;;;24.73;9.97;;;18.10;23.40;;;;;;5057286;28;46721;-80
2023/07/24 00:07:37;;;;;;;22.33;8.63;;;18.00;23.80;;;;;;5057532;28;47642;-80
2023/07/24 00:10:03;;;;;;;19.30;9.70;;;17.90;24.20;;;;;;5058753;28;46427;-80
2023/07/24 00:12:29;;;;;;;23.40;10.10;;;17.80;24.60;;;;;;5055778;28;46407;-80
2023/07/24 00:14:54;;;;;;;20.57;9.50;;;17.70;24.90;;;;;;5059102;28;46502;-79
2023/07/24 00:17:20;;;;;;;22.63;10.50;;;17.70;25.00;;;;;;5058221;28;46514;-80
2023/07/24 00:19:46;;;;;;;22.10;10.13;;;17.70;25.00;;;;;;5059200;28;46443;-81
2023/07/24 00:22:11;;;;;;;24.80;9.97;;;17.70;25.10;;;;;;5061748;28;46432;-80
2023/07/24 00:24:37;;;;;;;21.60;9.83;;;17.70;25.20;;;;;;5063645;28;46569;-80
2023/07/24 00:27:02;;;;;;;19.57;9.80;;;17.60;25.30;;;;;;5061381;28;47556;-80
2023/07/24 00:29:28;;;;;;;19.30;9.57;;;17.70;25.40;;;;;;5061870;28;46566;-81
2023/07/24 00:31:54;;;;;;;20.30;9.80;;;17.60;25.30;;;;;;5043148;28;46523;-80
2023/07/24 00:34:20;;;;;;;21.37;8.90;;;17.60;25.60;;;;;;5063365;28;46858;-80
2023/07/24 00:36:45;;;;;;;17.03;8.70;;;17.60;25.70;;;;;;5062980;28;46433;-80
2023/07/24 00:39:11;;;;;;;18.83;9.43;;;17.60;26.10;;;;;;5047937;28;46500;-80
2023/07/24 00:41:37;;;;;;;21.50;9.00;;;17.40;26.10;;;;;;5062364;28;46709;-80
2023/07/24 00:44:02;;;;;;;16.90;8.60;;;17.40;26.30;;;;;;5049671;28;46579;-79
2023/07/24 00:46:31;;;;;;;16.50;9.00;;;17.40;26.50;;;;;;5060053;28;47437;-80
2023/07/24 00:48:59;;;;;;;20.03;9.27;;;17.50;26.20;;;;;;5043317;28;46465;-82
2023/07/24 00:51:27;;;;;;;24.93;8.97;;;17.60;26.00;;;;;;5041273;28;46478;-81
2023/07/24 00:54:04;;;;;;;16.37;8.93;;;17.70;25.90;;;;;;5061948;28;46510;-80
2023/07/24 00:56:31;;;;;;;15.70;8.37;;;17.60;25.90;;;;;;5061207;28;46404;-78
2023/07/24 00:58:57;;;;;;;21.50;9.60;;;17.60;26.20;;;;;;5062959;28;46621;-80
2023/07/24 01:01:24;;;;;;;18.00;9.70;;;17.50;26.30;;;;;;5064505;28;46620;-80
2023/07/24 01:03:50;;;;;;;17.10;9.40;;;17.60;26.20;;;;;;5061405;28;46486;-80
2023/07/24 01:06:16;;;;;;;24.33;9.70;;;17.60;26.40;;;;;;5060909;28;46470;-81
2023/07/24 01:08:42;;;;;;;21.03;9.40;;;17.60;26.60;;;;;;5062574;28;46425;-80
2023/07/24 01:11:19;;;;;;;18.30;8.87;;;17.50;26.80;;;;;;5040339;28;46463;-80
2023/07/24 01:14:02;;;;;;;24.73;9.40;;;17.40;27.30;;;;;;5055625;28;46406;-80
2023/07/24 01:16:37;;;;;;;16.83;9.30;;;17.30;27.90;;;;;;5040872;28;48612;-81
2023/07/24 01:19:10;;;;;;;21.73;9.80;;;17.40;27.80;;;;;;5060586;28;45799;-79
2023/07/24 01:21:51;;;;;;;16.90;9.23;;;17.40;27.70;;;;;;5061695;28;46554;-79
2023/07/24 01:24:24;;;;;;;25.33;10.40;;;17.40;27.80;;;;;;5061385;28;46512;-78
2023/07/24 01:26:50;;;;;;;20.27;9.73;;;17.40;28.00;;;;;;5061660;28;47147;-78
2023/07/24 01:29:16;;;;;;;21.20;10.97;;;17.40;28.30;;;;;;5061987;28;46509;-79
2023/07/24 01:31:41;;;;;;;22.80;11.20;;;17.30;28.70;;;;;;5062440;28;46656;-80
2023/07/24 01:34:07;;;;;;;27.73;11.10;;;17.30;29.20;;;;;;5064100;28;46771;-80
2023/07/24 01:36:32;;;;;;;19.80;11.40;;;17.40;29.80;;;;;;5062370;28;47198;-80
2023/07/24 01:39:00;;;;;;;21.50;10.03;;;17.30;31.40;;;;;;5061845;28;46507;-79
2023/07/24 01:41:26;;;;;;;25.23;10.20;;;17.10;32.70;;;;;;5059249;28;46481;-79
2023/07/24 01:43:51;;;;;;;19.17;9.43;;;17.10;35.80;;;;;;5064431;28;46437;-78
2023/07/24 01:46:17;;;;;;;16.63;9.60;;;17.10;35.40;;;;;;5046011;28;47328;-80
2023/07/24 01:48:43;;;;;;;16.70;9.33;;;17.30;34.80;;;;;;5063525;28;46166;-80
2023/07/24 01:51:08;;;;;;;26.80;9.50;;;17.50;34.40;;;;;;5066494;28;46526;-80
2023/07/24 01:53:34;;;;;;;21.67;9.87;;;17.40;37.40;;;;;;5064617;28;47144;-80
2023/07/24 01:56:00;;;;;;;22.93;10.97;;;17.40;38.60;;;;;;5067516;28;46565;-79
2023/07/24 01:58:25;;;;;;;24.50;11.30;;;17.40;41.80;;;;;;5066082;28;45769;-79
2023/07/24 02:00:51;;;;;;;22.70;11.30;;;17.40;42.80;;;;;;5064627;28;46491;-79
2023/07/24 02:03:16;;;;;;;21.90;11.23;;;17.60;42.10;;;;;;5046862;28;46540;-78
2023/07/24 02:05:42;;;;;;;22.20;11.30;;;17.70;40.20;;;;;;5058312;28;46588;-77
2023/07/24 02:08:07;;;;;;;20.87;10.80;;;17.80;39.10;;;;;;5058744;28;47080;-87
2023/07/24 02:10:37;;;;;;;24.60;11.33;;;18.00;38.20;;;;;;5058720;28;46447;-79
2023/07/24 02:13:03;;;;;;;23.50;12.03;;;18.10;37.40;;;;;;5060486;28;46553;-79
2023/07/24 02:15:28;;;;;;;23.83;11.37;;;18.20;36.70;;;;;;5058849;28;47046;-79
2023/07/24 02:17:54;;;;;;;20.60;10.43;;;18.20;36.30;;;;;;5060559;28;46484;-79
2023/07/24 02:20:19;;;;;;;26.30;12.47;;;18.30;36.00;;;;;;5060473;28;47039;-79
2023/07/24 02:22:45;;;;;;;23.37;11.40;;;18.30;35.70;;;;;;5057829;28;46508;-80
2023/07/24 02:25:10;;;;;;;21.40;10.80;;;18.30;35.50;;;;;;5061635;28;46410;-82
2023/07/24 02:27:36;;;;;;;22.40;11.50;;;18.40;35.30;;;;;;5060880;28;46482;-84
2023/07/24 02:30:02;;;;;;;24.70;10.40;;;18.50;35.00;;;;;;5061233;28;46463;-80
2023/07/24 02:32:28;;;;;;;23.07;10.90;;;18.40;34.70;;;;;;5060304;28;46854;-80
2023/07/24 02:34:53;;;;;;;20.10;11.73;;;18.50;34.40;;;;;;5044681;28;48239;-80
2023/07/24 02:37:19;;;;;;;27.70;12.03;;;18.60;34.30;;;;;;5062114;28;46526;-79
2023/07/24 02:39:45;;;;;;;23.80;11.37;;;18.40;36.50;;;;;;5060108;28;46774;-79
2023/07/24 02:42:11;;;;;;;20.27;10.70;;;18.10;38.90;;;;;;5058251;28;46540;-78
2023/07/24 02:44:36;;;;;;;21.57;11.77;;;18.10;40.80;;;;;;5057827;28;46926;-79
2023/07/24 02:47:02;;;;;;;30.00;12.67;;;18.00;42.60;;;;;;5063378;28;46747;-79
2023/07/24 02:49:29;;;;;;;19.73;10.80;;;18.00;42.10;;;;;;5059624;28;46497;-80
2023/07/24 02:51:55;;;;;;;20.40;11.93;;;18.10;42.10;;;;;;5061093;28;46602;-79
2023/07/24 02:54:20;;;;;;;25.10;11.80;;;18.20;41.60;;;;;;5059659;28;46925;-78
2023/07/24 02:56:46;;;;;;;25.20;13.07;;;18.30;40.80;;;;;;5032798;28;46308;-77
2023/07/24 02:59:11;;;;;;;18.93;10.30;;;18.40;40.40;;;;;;5062231;28;46545;-78
2023/07/24 03:01:37;;;;;;;24.60;12.10;;;18.50;40.00;;;;;;5056417;28;45936;-78
2023/07/24 03:04:05;;;;;;;21.07;11.27;;;18.50;39.70;;;;;;5058569;28;46502;-79
2023/07/24 03:06:31;;;;;;;23.90;11.27;;;18.50;39.50;;;;;;5040539;28;46583;-80
2023/07/24 03:08:56;;;;;;;20.20;10.80;;;18.50;39.50;;;;;;5058433;28;45939;-80
2023/07/24 03:11:22;;;;;;;24.40;12.23;;;18.50;40.50;;;;;;5060663;28;46468;-80
2023/07/24 03:13:47;;;;;;;23.13;10.63;;;18.60;41.00;;;;;;5057622;28;46415;-79
2023/07/24 03:16:13;;;;;;;24.80;11.87;;;18.50;41.10;;;;;;5060494;28;46407;-80
2023/07/24 03:18:38;;;;;;;22.33;11.00;;;18.50;41.00;;;;;;5059796;28;45911;-79
2023/07/24 03:21:04;;;;;;;24.93;11.83;;;18.60;42.70;;;;;;5060260;28;46439;-79
2023/07/24 03:23:29;;;;;;;20.50;11.20;;;18.50;42.10;;;;;;5060245;28;47125;-78
2023/07/24 03:25:55;;;;;;;22.57;11.87;;;18.60;42.20;;;;;;5060476;28;46549;-81
2023/07/24 03:28:20;;;;;;;22.37;11.40;;;18.40;42.30;;;;;;5058743;28;46474;-80
2023/07/24 03:30:46;;;;;;;20.87;12.10;;;18.30;42.70;;;;;;5057710;28;45982;-79
2023/07/24 03:33:12;;;;;;;22.77;10.23;;;18.30;43.30;;;;;;5059745;28;46530;-80
2023/07/24 03:35:39;;;;;;;29.13;13.03;;;18.30;43.80;;;;;;5049102;28;46479;-79
2023/07/24 03:38:05;;;;;;;25.23;13.47;;;18.20;43.50;;;;;;5058637;28;46556;-80
2023/07/24 03:40:30;;;;;;;26.33;12.70;;;18.30;43.70;;;;;;5059589;28;46666;-79
2023/07/24 03:42:56;;;;;;;23.40;11.87;;;18.30;43.90;;;;;;5058820;28;47001;-79
2023/07/24 03:45:21;;;;;;;28.70;12.00;;;18.30;44.20;;;;;;5057134;28;45826;-78
2023/07/24 03:47:47;;;;;;;23.20;12.43;;;18.20;44.20;;;;;;5058170;28;46604;-80
2023/07/24 03:50:12;;;;;;;29.23;11.87;;;18.30;44.30;;;;;;5055009;28;46762;-80
2023/07/24 03:52:38;;;;;;;25.37;12.57;;;18.20;44.30;;;;;;5041139;28;48631;-79
2023/07/24 03:55:04;;;;;;;24.40;11.77;;;18.20;45.20;;;;;;5043150;28;46530;-79
2023/07/24 03:57:29;;;;;;;24.23;12.93;;;18.20;44.80;;;;;;5062416;28;47002;-81
2023/07/24 03:59:55;;;;;;;21.70;11.43;;;18.30;44.40;;;;;;5042897;28;46857;-79
2023/07/24 04:02:21;;;;;;;29.93;13.17;;;18.40;44.00;;;;;;5060871;28;46890;-79
2023/07/24 04:04:47;;;;;;;24.50;12.17;;;18.40;43.30;;;;;;5061533;28;46523;-80
2023/07/24 04:07:13;;;;;;;26.33;11.87;;;18.50;43.20;;;;;;5060877;28;46498;-80
2023/07/24 04:09:38;;;;;;;24.20;11.87;;;18.60;43.20;;;;;;5042965;28;46667;-80
2023/07/24 04:12:04;;;;;;;22.00;11.80;;;18.60;43.30;;;;;;5061534;28;46430;-80
2023/07/24 04:14:30;;;;;;;22.60;11.40;;;18.50;43.60;;;;;;5059908;28;47300;-78
2023/07/24 04:16:55;;;;;;;23.30;12.60;;;18.50;43.80;;;;;;5060876;28;46750;-79
2023/07/24 04:19:21;;;;;;;29.27;12.37;;;18.50;44.30;;;;;;5042733;28;46534;-81
2023/07/24 04:21:46;;;;;;;22.70;11.13;;;18.50;44.50;;;;;;5063598;28;46780;-79
2023/07/24 04:24:12;;;;;;;29.37;11.40;;;18.60;43.20;;;;;;5064068;28;46459;-79
2023/07/24 04:26:39;;;;;;;23.53;11.60;;;18.60;44.10;;;;;;5060625;28;46703;-79
2023/07/24 04:29:05;;;;;;;21.73;12.67;;;18.70;43.40;;;;;;5062316;28;46562;-79
2023/07/24 04:31:31;;;;;;;24.37;12.30;;;18.80;43.00;;;;;;5060674;28;46783;-80
2023/07/24 04:33:56;;;;;;;25.57;11.63;;;18.80;42.90;;;;;;5060402;28;46509;-79
2023/07/24 04:36:22;;;;;;;18.53;11.13;;;18.80;43.20;;;;;;5062555;28;46552;-78
2023/07/24 04:38:47;;;;;;;24.10;12.77;;;18.80;43.30;;;;;;5061202;28;47375;-79
2023/07/24 04:41:13;;;;;;;23.80;12.63;;;18.70;43.60;;;;;;5061522;28;46464;-80
2023/07/24 04:43:38;;;;;;;19.63;10.10;;;18.70;43.80;;;;;;5062266;28;45826;-78
2023/07/24 04:46:04;;;;;;;23.60;11.97;;;18.60;45.20;;;;;;5062865;27;46454;-79
2023/07/24 04:48:29;;;;;;;21.50;11.10;;;18.60;45.70;;;;;;5063501;28;46698;-78
2023/07/24 04:50:56;;;;;;;20.87;10.97;;;18.60;45.80;;;;;;5060928;28;46767;-79
2023/07/24 04:53:22;;;;;;;21.93;11.10;;;18.70;46.10;;;;;;5061056;28;46536;-79
2023/07/24 04:55:48;;;;;;;20.70;10.17;;;18.80;46.50;;;;;;5058762;28;46481;-79
2023/07/24 04:58:14;;;;;;;24.57;10.97;;;18.90;46.10;;;;;;5042340;28;46904;-78
2023/07/24 05:00:39;;;;;;;17.90;10.57;;;19.00;45.50;;;;;;5060421;28;47601;-78
2023/07/24 05:03:06;;;;;;;21.23;11.30;;;19.10;45.40;;;;;;5040934;28;46666;-79
2023/07/24 05:05:32;;;;;;;21.40;11.00;;;19.00;46.50;;;;;;5062594;27;46493;-80
2023/07/24 05:07:57;;;;;;;22.70;10.23;;;19.10;45.10;;;;;;5060427;28;46360;-78
2023/07/24 05:10:23;;;;;;;19.27;9.73;;;19.10;45.10;;;;;;5060407;28;47047;-79
2023/07/24 05:12:48;;;;;;;25.00;11.57;;;19.20;45.10;;;;;;5062421;28;47444;-79
2023/07/24 05:15:16;;;;;;;22.40;11.83;;;19.20;45.40;;;;;;5058876;28;47711;-79
2023/07/24 05:17:45;;;;;;;20.13;11.17;;;19.20;45.20;;;;;;5066467;28;45944;-78
2023/07/24 05:20:11;;;;;;;19.63;11.23;;;19.30;44.70;;;;;;5061855;28;46735;-79
2023/07/24 05:22:36;;;;;;;19.30;11.00;;;19.70;44.30;;;;;;5065334;28;46405;-80
2023/07/24 05:25:02;;;;;;;19.93;10.30;;;20.20;43.20;;;;;;5045066;28;46649;-78
2023/07/24 05:27:29;;;;;;;25.80;10.97;;;20.60;41.80;;;;;;5063099;28;46333;-79
2023/07/24 05:29:55;;;;;;;19.60;10.67;;;21.10;40.00;;;;;;5059728;28;46505;-80
2023/07/24 05:32:22;;;;;;;19.57;10.50;;;22.40;36.20;;;;;;5060119;28;46530;-79
2023/07/24 05:34:47;;;;;;;17.83;10.10;;;23.80;31.60;;;;;;5062883;28;46439;-81
2023/07/24 05:37:13;;;;;;;19.50;10.57;;;24.90;27.90;;;;;;5063746;28;46752;-81
2023/07/24 05:39:38;;;;;;;16.60;9.93;;;25.30;26.20;;;;;;5042565;28;49221;-81
2023/07/24 05:42:04;;;;;;;15.07;9.43;;;25.80;24.60;;;;;;5060919;28;46431;-81
2023/07/24 05:44:30;;;;;;;16.77;9.60;;;26.20;22.60;;;;;;5061298;28;47006;-81
2023/07/24 05:46:55;;;;;;;21.43;9.53;;;26.10;21.20;;;;;;5060856;28;46411;-81
2023/07/24 05:49:21;;;;;;;20.27;9.40;;;25.50;22.10;;;;;;5061888;28;46776;-82
2023/07/24 05:51:46;;;;;;;16.63;9.90;;;25.00;23.40;;;;;;5059223;28;46439;-82
2023/07/24 05:54:12;;;;;;;18.13;9.50;;;24.20;24.40;;;;;;5059531;28;47300;-82
2023/07/24 05:56:37;;;;;;;16.67;9.70;;;23.50;24.90;;;;;;5050728;28;46797;-82
2023/07/24 05:59:03;;;;;;;18.60;9.13;;;23.00;26.00;;;;;;5058117;28;46498;-83
2023/07/24 06:01:28;;;;;;;15.20;8.93;;;22.50;26.50;;;;;;5059897;28;46474;-81
2023/07/24 06:03:54;;;;;;;16.97;9.50;;;22.00;26.90;;;;;;5044999;28;46666;-79
2023/07/24 06:06:19;;;;;;;14.83;8.43;;;21.70;27.70;;;;;;5050530;28;46517;-80
2023/07/24 06:08:47;;;;;;;15.10;9.30;;;21.40;28.30;;;;;;5064251;28;47032;-82
2023/07/24 06:11:12;;;;;;;18.60;10.50;;;21.70;27.80;;;;;;5036877;28;46277;-81
2023/07/24 06:13:38;;;;;;;21.57;9.63;;;22.40;26.30;;;;;;5063002;28;46426;-81
2023/07/24 06:16:04;;;;;;;23.03;9.73;;;23.60;24.80;;;;;;5059928;28;47067;-79
2023/07/24 06:18:29;;;;;;;17.17;10.40;;;25.30;20.90;;;;;;5058221;28;47200;-84
2023/07/24 06:20:55;;;;;;;18.83;9.17;;;26.40;18.50;;;;;;5059374;28;46541;-79
2023/07/24 06:23:20;;;;;;;19.77;9.20;;;26.40;17.90;;;;;;5058195;28;45857;-81
2023/07/24 06:25:46;;;;;;;15.67;9.63;;;25.90;18.80;;;;;;5057490;28;46364;-84
2023/07/24 06:28:12;;;;;;;15.80;9.70;;;25.30;19.80;;;;;;5046396;28;46565;-82
2023/07/24 06:30:41;;;;;;;17.30;10.00;;;25.00;20.50;;;;;;5062465;28;46793;-82
2023/07/24 06:33:06;;;;;;;14.70;9.30;;;24.60;20.60;;;;;;5055272;28;47167;-81
2023/07/24 06:35:32;;;;;;;16.63;8.90;;;24.40;20.90;;;;;;5054457;28;46594;-82
2023/07/24 06:37:57;;;;;;;17.10;10.67;;;24.10;21.30;;;;;;5049827;28;47745;-84
2023/07/24 06:40:23;;;;;;;16.80;10.10;;;23.80;22.00;;;;;;5058847;28;46478;-82
2023/07/24 06:42:49;;;;;;;19.83;9.53;;;23.40;22.80;;;;;;5057634;28;46375;-81
2023/07/24 06:45:14;;;;;;;22.70;10.27;;;23.00;23.40;;;;;;5038331;28;45977;-82
2023/07/24 06:47:40;;;;;;;16.70;9.43;;;22.50;24.20;;;;;;5059041;28;46750;-81
2023/07/24 06:50:06;;;;;;;16.43;9.47;;;22.30;24.10;;;;;;5057137;28;46938;-82
2023/07/24 06:52:33;;;;;;;19.20;10.10;;;22.00;24.20;;;;;;5059196;28;46466;-83
2023/07/24 06:54:59;;;;;;;16.93;9.37;;;21.70;25.60;;;;;;5058718;28;46015;-80
2023/07/24 06:57:24;;;;;;;14.27;8.03;;;21.50;26.60;;;;;;5059230;28;46512;-83
2023/07/24 06:59:50;;;;;;;19.80;9.30;;;21.30;27.40;;;;;;5040973;28;46697;-82
2023/07/24 07:02:16;;;;;;;18.47;8.63;;;21.20;28.40;;;;;;5041660;28;46724;-84
2023/07/24 07:04:41;;;;;;;14.47;8.17;;;21.00;29.20;;;;;;5057976;28;46779;-82
2023/07/24 07:07:07;;;;;;;19.70;9.10;;;20.70;30.40;;;;;;5058232;28;47243;-83
2023/07/24 07:09:32;;;;;;;18.77;8.80;;;20.60;31.60;;;;;;5056684;28;46747;-83
2023/07/24 07:11:58;;;;;;;21.40;9.70;;;20.40;32.30;;;;;;5057546;28;47007;-83
2023/07/24 07:14:24;;;;;;;22.47;7.90;;;20.50;31.80;;;;;;5059511;28;46515;-83
2023/07/24 07:16:49;;;;;;;18.83;9.87;;;20.50;33.00;;;;;;5042092;28;49209;-82
2023/07/24 07:19:15;;;;;;;15.60;8.60;;;20.50;31.50;;;;;;5056547;28;46677;-82
2023/07/24 07:21:41;;;;;;;16.47;8.50;;;20.50;31.60;;;;;;5056755;28;46685;-80
2023/07/24 07:24:06;;;;;;;17.13;8.60;;;20.40;31.00;;;;;;5055161;28;46914;-81
2023/07/24 07:26:33;;;;;;;14.20;8.73;;;20.40;31.90;;;;;;5040419;28;49704;-81
2023/07/24 07:28:58;;;;;;;18.33;9.60;;;20.30;32.30;;;;;;5042227;28;46448;-82
2023/07/24 07:31:24;;;;;;;14.40;8.17;;;20.40;32.80;;;;;;5060642;28;45867;-81
2023/07/24 07:33:49;;;;;;;14.80;7.73;;;20.30;33.20;;;;;;5055801;28;46736;-82
2023/07/24 07:36:15;;;;;;;14.67;8.60;;;20.10;33.80;;;;;;5041425;28;47983;-82
2023/07/24 07:38:40;;;;;;;15.73;8.27;;;20.10;34.10;;;;;;5055426;28;46709;-81
2023/07/24 07:41:06;;;;;;;16.03;8.07;;;19.90;33.90;;;;;;5056698;28;46461;-80
2023/07/24 07:43:32;;;;;;;17.13;8.53;;;19.90;33.90;;;;;;5056692;28;46748;-82
2023/07/24 07:45:59;;;;;;;16.17;8.60;;;19.90;33.90;;;;;;5057418;28;46556;-83
2023/07/24 07:48:25;;;;;;;14.97;7.87;;;20.00;34.30;;;;;;5055203;28;46502;-83
2023/07/24 07:50:51;;;;;;;13.40;7.90;;;19.90;34.40;;;;;;5060241;28;46383;-79
2023/07/24 07:53:17;;;;;;;14.40;8.50;;;19.90;34.40;;;;;;5040616;28;46899;-81
2023/07/24 07:55:43;;;;;;;16.80;7.43;;;19.90;34.40;;;;;;5058779;28;47398;-82
2023/07/24 07:58:08;;;;;;;18.10;7.40;;;19.90;34.70;;;;;;5042765;28;46507;-85
2023/07/24 08:00:34;;;;;;;13.60;7.50;;;20.00;34.30;;;;;;5059688;28;46381;-83
2023/07/24 08:03:00;;;;;;;13.73;6.80;;;19.90;36.30;;;;;;5057693;28;47071;-82
2023/07/24 08:05:26;;;;;;;15.80;8.77;;;19.80;37.10;;;;;;5057859;28;46530;-81
2023/07/24 08:07:51;;;;;;;14.83;7.70;;;19.80;37.30;;;;;;5056015;28;46630;-83
2023/07/24 08:10:17;;;;;;;14.97;8.47;;;19.80;37.40;;;;;;5055189;28;46918;-78
2023/07/24 08:12:43;;;;;;;13.77;7.87;;;19.80;37.70;;;;;;5057916;28;46665;-81
2023/07/24 08:15:09;;;;;;;12.63;7.43;;;19.70;38.80;;;;;;5056296;28;46663;-82
2023/07/24 08:17:35;;;;;;;16.70;8.43;;;19.60;40.10;;;;;;5058478;28;46495;-81
2023/07/24 08:20:01;;;;;;;19.77;8.80;;;19.70;39.90;;;;;;5058207;28;47971;-83
2023/07/24 08:22:26;;;;;;;16.07;8.50;;;19.60;40.80;;;;;;5044484;28;45905;-79
2023/07/24 08:24:52;;;;;;;14.57;8.23;;;19.70;40.50;;;;;;5063619;28;47030;-83
2023/07/24 08:27:17;;;;;;;15.70;8.00;;;20.00;39.40;;;;;;5059164;28;46820;-79
2023/07/24 08:29:43;;;;;;;11.57;7.30;;;20.50;37.50;;;;;;5062266;28;46526;-81
2023/07/24 08:32:09;;;;;;;11.77;6.87;;;21.00;35.60;;;;;;5067114;28;46819;-81
2023/07/24 08:34:34;;;;;;;14.93;8.10;;;21.50;35.70;;;;;;5059034;28;46588;-80
2023/07/24 08:37:00;;;;;;;14.10;7.80;;;22.00;33.30;;;;;;5042057;28;46932;-80
2023/07/24 08:39:25;;;;;;;14.63;7.03;;;22.40;32.50;;;;;;5060327;28;46445;-80
2023/07/24 08:41:51;;;;;;;11.50;6.50;;;22.70;32.00;;;;;;5041777;28;46631;-81
2023/07/24 08:44:17;;;;;;;14.80;7.60;;;22.90;32.40;;;;;;5061474;28;48146;-80
2023/07/24 08:46:45;;;;;;;13.97;7.90;;;23.00;31.70;;;;;;5063979;28;46508;-79
2023/07/24 08:49:13;;;;;;;13.40;7.20;;;23.10;31.40;;;;;;5062034;28;46780;-79
2023/07/24 08:51:40;;;;;;;10.93;6.20;;;23.20;31.00;;;;;;5065278;28;46419;-80
2023/07/24 08:54:06;;;;;;;10.90;6.70;;;23.30;30.50;;;;;;5063445;28;47339;-80
2023/07/24 08:56:32;;;;;;;16.60;7.50;;;23.10;30.60;;;;;;5062304;28;46449;-81
2023/07/24 08:58:58;;;;;;;13.23;7.03;;;22.90;31.10;;;;;;5064320;28;46440;-80
2023/07/24 09:01:24;;;;;;;13.77;7.20;;;22.90;31.60;;;;;;5064663;28;47415;-81
2023/07/24 09:03:50;;;;;;;12.20;6.50;;;23.00;31.30;;;;;;5066114;28;46259;-81
2023/07/24 09:06:16;;;;;;;12.00;6.30;;;23.20;30.80;;;;;;5066656;28;46713;-82
2023/07/24 09:08:43;;;;;;;14.53;6.70;;;23.50;29.80;;;;;;5066022;28;46394;-81
2023/07/24 09:11:10;;;;;;;12.83;6.77;;;23.70;29.00;;;;;;5064003;28;46544;-79
2023/07/24 09:13:38;;;;;;;9.57;5.17;;;24.00;28.30;;;;;;5063888;28;46451;-82
2023/07/24 09:16:04;;;;;;;10.97;5.17;;;24.20;27.70;;;;;;5063610;28;46444;-78
2023/07/24 09:18:44;;;;;;;10.37;6.17;;;24.20;27.50;;;;;;5062101;28;46829;-79
2023/07/24 09:21:13;;;;;;;9.70;5.40;;;24.60;26.60;;;;;;5062534;28;46510;-79
2023/07/24 09:23:43;;;;;;;9.40;5.40;;;24.60;26.70;;;;;;5043235;28;49333;-82
2023/07/24 09:26:09;;;;;;;11.63;4.93;;;24.70;25.70;;;;;;5063853;28;46519;-80
2023/07/24 09:28:35;;;;;;;9.33;5.07;;;25.00;26.00;;;;;;5061580;28;46423;-80
2023/07/24 09:31:01;;;;;;;8.03;4.87;;;25.20;24.70;;;;;;5061674;28;46910;-83
2023/07/24 09:33:38;;;;;;;9.80;4.67;;;25.30;24.20;;;;;;5060453;28;46458;-81
2023/07/24 09:36:07;;;;;;;9.50;5.00;;;25.20;23.90;;;;;;5044433;28;46376;-81
2023/07/24 09:38:33;;;;;;;7.83;4.67;;;25.20;23.80;;;;;;5066195;28;46455;-81
2023/07/24 09:41:02;;;;;;;8.77;5.00;;;25.40;23.50;;;;;;5063864;28;46415;-81
2023/07/24 09:43:28;;;;;;;7.80;4.20;;;25.60;23.00;;;;;;5060959;28;47305;-80
2023/07/24 09:45:54;;;;;;;12.33;4.20;;;25.70;22.60;;;;;;5062952;28;46586;-82
2023/07/24 09:48:25;;;;;;;8.30;4.43;;;25.80;23.20;;;;;;5063672;28;46641;-79
2023/07/24 09:50:56;;;;;;;8.10;4.80;;;25.90;21.80;;;;;;5062514;28;47323;-80
2023/07/24 09:53:36;;;;;;;8.00;4.10;;;26.20;21.10;;;;;;5058970;28;46662;-80
2023/07/24 09:56:05;;;;;;;7.63;4.47;;;26.50;20.50;;;;;;5061483;28;46555;-79
2023/07/24 09:58:36;;;;;;;8.87;4.40;;;26.80;19.70;;;;;;5061093;28;46525;-80
2023/07/24 10:01:09;;;;;;;7.63;4.03;;;26.90;19.40;;;;;;5062223;28;46489;-80
2023/07/24 10:03:46;;;;;;;12.33;4.20;;;26.90;19.30;;;;;;5047389;28;48650;-81
2023/07/24 10:06:14;;;;;;;7.57;3.80;;;26.60;19.30;;;;;;5025937;28;46516;-82
2023/07/24 10:08:41;;;;;;;8.67;4.00;;;26.50;19.80;;;;;;5063620;28;46422;-81
2023/07/24 10:11:12;;;;;;;6.80;3.90;;;26.20;20.00;;;;;;5047739;28;46691;-82
2023/07/24 10:13:38;;;;;;;6.80;3.93;;;25.90;20.30;;;;;;5063357;28;47565;-80
2023/07/24 10:16:06;;;;;;;7.43;3.63;;;25.60;20.70;;;;;;5065646;28;46859;-79
2023/07/24 10:18:33;;;;;;;10.20;3.87;;;25.50;20.80;;;;;;5069262;28;46434;-80
2023/07/24 10:21:00;;;;;;;6.27;3.87;;;25.50;20.60;;;;;;5064840;28;46395;-81
2023/07/24 10:23:26;;;;;;;8.33;4.10;;;25.90;19.70;;;;;;5063854;28;47990;-81
2023/07/24 10:25:52;;;;;;;6.77;3.77;;;26.20;18.90;;;;;;5061832;28;46534;-80
2023/07/24 10:28:18;;;;;;;8.20;4.33;;;26.50;18.50;;;;;;5042401;28;46510;-80
2023/07/24 10:30:44;;;;;;;7.03;3.63;;;27.00;17.70;;;;;;5062651;28;46494;-80
2023/07/24 10:33:11;;;;;;;9.17;4.20;;;27.30;16.60;;;;;;5064198;28;46403;-80
2023/07/24 10:35:38;;;;;;;6.40;3.97;;;27.40;16.10;;;;;;5040477;28;46451;-81
2023/07/24 10:38:04;;;;;;;7.17;3.97;;;27.40;16.10;;;;;;5060314;28;46532;-80
2023/07/24 10:40:32;;;;;;;9.00;4.57;;;27.40;16.10;;;;;;5061175;28;46526;-82
2023/07/24 10:43:04;;;;;;;7.60;3.93;;;27.40;16.10;;;;;;5038904;28;48156;-83
2023/07/24 10:45:39;;;;;;;7.00;4.00;;;27.40;16.10;;;;;;5058119;28;46494;-80
2023/07/24 10:48:05;;;;;;;6.30;3.50;;;27.30;15.70;;;;;;5056971;28;45895;-81
2023/07/24 10:50:39;;;;;;;8.07;3.93;;;27.10;15.20;;;;;;5057119;28;46555;-80
2023/07/24 10:53:05;;;;;;;6.67;4.13;;;27.00;14.30;;;;;;5056799;28;46841;-80
2023/07/24 10:55:31;;;;;;;8.20;4.00;;;27.10;15.30;;;;;;5044789;28;46528;-78
2023/07/24 10:57:56;;;;;;;7.73;3.80;;;27.10;14.20;;;;;;5059023;28;46599;-80
2023/07/24 11:00:22;;;;;;;9.33;4.70;;;27.10;14.10;;;;;;5057449;28;46777;-81
2023/07/24 11:02:47;;;;;;;12.63;5.00;;;27.00;13.90;;;;;;5056028;28;46705;-81
2023/07/24 11:05:14;;;;;;;10.43;4.10;;;27.30;13.60;;;;;;5058346;28;46493;-80
2023/07/24 11:07:39;;;;;;;7.90;4.30;;;27.50;13.00;;;;;;5060192;28;46512;-81
2023/07/24 11:10:21;;;;;;;11.73;4.17;;;27.70;12.50;;;;;;5039957;28;46599;-81
2023/07/24 11:12:47;;;;;;;9.20;4.53;;;27.70;11.90;;;;;;5037957;28;48545;-79
2023/07/24 11:15:14;;;;;;;9.87;4.50;;;27.70;11.80;;;;;;5056080;28;46785;-80
2023/07/24 11:17:41;;;;;;;7.93;4.53;;;27.60;11.90;;;;;;5060351;28;46532;-80
2023/07/24 11:20:07;;;;;;;9.80;4.60;;;27.60;11.90;;;;;;5038084;28;46885;-82
2023/07/24 11:22:33;;;;;;;7.63;4.43;;;27.30;11.80;;;;;;5053653;28;48650;-84
2023/07/24 11:25:01;;;;;;;8.00;4.73;;;27.20;11.20;;;;;;5058506;28;46512;-79
2023/07/24 11:27:26;;;;;;;8.23;4.20;;;27.40;11.10;;;;;;5041756;28;46482;-79
2023/07/24 11:29:52;;;;;;;10.43;4.60;;;27.40;11.00;;;;;;5057232;28;46419;-81
2023/07/24 11:32:19;;;;;;;5.90;3.50;;;27.20;10.90;;;;;;5056122;28;48445;-81
2023/07/24 11:34:46;;;;;;;8.97;4.77;;;27.30;10.70;;;;;;5058196;28;46623;-82
2023/07/24 11:37:13;;;;;;;8.57;4.97;;;27.50;10.40;;;;;;5037930;28;46371;-81
2023/07/24 11:39:38;;;;;;;6.53;4.63;;;27.30;10.20;;;;;;5059638;28;47241;-85
2023/07/24 11:42:04;;;;;;;11.90;4.57;;;27.40;10.30;;;;;;5054365;27;46604;-79
2023/07/24 11:44:30;;;;;;;9.63;5.10;;;27.40;10.00;;;;;;5040663;28;46516;-81
2023/07/24 11:47:06;;;;;;;8.97;4.90;;;27.10;10.70;;;;;;5060543;28;46517;-84
2023/07/24 11:49:32;;;;;;;7.60;4.57;;;26.50;11.80;;;;;;5041713;28;46484;-83
2023/07/24 11:52:05;;;;;;;9.53;5.17;;;25.80;13.50;;;;;;5057470;28;46573;-80
2023/07/24 11:54:34;;;;;;;8.30;4.77;;;25.00;14.90;;;;;;5056455;28;46542;-77
2023/07/24 11:56:59;;;;;;;11.80;5.90;;;24.60;16.60;;;;;;5058172;28;46094;-82
2023/07/24 11:59:25;;;;;;;10.60;6.10;;;23.90;19.80;;;;;;5057048;28;46572;-83
2023/07/24 12:01:51;;;;;;;10.87;6.20;;;23.50;21.20;;;;;;5057592;28;47250;-81
2023/07/24 12:04:17;;;;;;;11.00;6.00;;;23.10;22.60;;;;;;5059941;28;46483;-83
2023/07/24 12:06:43;;;;;;;10.20;5.63;;;23.10;23.50;;;;;;5058516;28;46434;-82
2023/07/24 12:09:10;;;;;;;9.30;5.63;;;22.80;24.40;;;;;;5059640;28;46806;-81
2023/07/24 12:11:41;;;;;;;12.10;6.40;;;22.70;24.50;;;;;;5058669;28;47310;-80
2023/07/24 12:14:07;;;;;;;13.50;6.27;;;22.50;25.70;;;;;;5057972;28;46556;-81
2023/07/24 12:16:34;;;;;;;12.80;5.30;;;22.50;26.60;;;;;;5059841;28;46396;-80
2023/07/24 12:19:00;;;;;;;15.07;5.73;;;22.30;29.10;;;;;;5059852;28;46414;-79
2023/07/24 12:21:25;;;;;;;13.93;6.00;;;22.10;30.90;;;;;;5060253;28;47400;-79
2023/07/24 12:23:51;;;;;;;13.30;6.17;;;21.90;32.90;;;;;;5060356;28;46476;-83
2023/07/24 12:26:16;;;;;;;9.30;5.93;;;21.80;33.30;;;;;;5058991;28;46517;-83
2023/07/24 12:28:42;;;;;;;12.23;6.00;;;21.80;32.80;;;;;;5058935;28;46502;-83
2023/07/24 12:31:08;;;;;;;11.53;5.60;;;21.80;32.40;;;;;;5059101;28;46497;-81